sensor_id;sensor_type;location;lat;lon;timestamp;temperature;humidity
73547;SHT30;61807;48.384;-4.386;2022-08-04T00:05:22;19.79;71.74
73547;SHT30;61807;48.384;-4.386;2022-08-04T00:10:38;19.73;71.90
73547;SHT30;61807;48.384;-4.386;2022-08-04T00:13:06;19.70;71.97
73547;SHT30;61807;48.384;-4.386;2022-08-04T00:15:32;19.70;71.97
73547;SHT30;61807;48.384;-4.386;2022-08-04T00:18:02;19.70;71.98
73547;SHT30;61807;48.384;-4.386;2022-08-04T00:20:31;19.68;72.02
73547;SHT30;61807;48.384;-4.386;2022-08-04T00:22:58;19.64;72.09
73547;SHT30;61807;48.384;-4.386;2022-08-04T00:25:24;19.63;72.10
73547;SHT30;61807;48.384;-4.386;2022-08-04T00:27:50;19.60;72.15
73547;SHT30;61807;48.384;-4.386;2022-08-04T00:30:15;19.53;72.22
73547;SHT30;61807;48.384;-4.386;2022-08-04T00:32:41;19.53;72.33
73547;SHT30;61807;48.384;-4.386;2022-08-04T00:35:08;19.46;72.63
73547;SHT30;61807;48.384;-4.386;2022-08-04T00:37:36;19.46;72.74
73547;SHT30;61807;48.384;-4.386;2022-08-04T00:40:12;19.49;72.73
73547;SHT30;61807;48.384;-4.386;2022-08-04T00:42:48;19.47;72.79
73547;SHT30;61807;48.384;-4.386;2022-08-04T00:48:29;19.41;72.84
73547;SHT30;61807;48.384;-4.386;2022-08-04T00:54:17;19.40;72.89
73547;SHT30;61807;48.384;-4.386;2022-08-04T01:11:06;19.17;73.36
73547;SHT30;61807;48.384;-4.386;2022-08-04T01:16:45;19.13;73.44
73547;SHT30;61807;48.384;-4.386;2022-08-04T01:30:15;19.03;73.65
73547;SHT30;61807;48.384;-4.386;2022-08-04T01:32:51;19.02;73.65
73547;SHT30;61807;48.384;-4.386;2022-08-04T01:35:23;18.99;73.76
73547;SHT30;61807;48.384;-4.386;2022-08-04T01:38:18;18.98;73.79
73547;SHT30;61807;48.384;-4.386;2022-08-04T01:40:51;18.92;73.83
73547;SHT30;61807;48.384;-4.386;2022-08-04T01:43:19;18.92;73.78
73547;SHT30;61807;48.384;-4.386;2022-08-04T01:45:49;18.88;73.89
73547;SHT30;61807;48.384;-4.386;2022-08-04T01:48:16;18.87;73.84
73547;SHT30;61807;48.384;-4.386;2022-08-04T01:50:43;18.88;73.88
73547;SHT30;61807;48.384;-4.386;2022-08-04T01:53:09;18.84;73.92
73547;SHT30;61807;48.384;-4.386;2022-08-04T01:55:36;18.82;74.02
73547;SHT30;61807;48.384;-4.386;2022-08-04T01:58:04;18.82;74.13
73547;SHT30;61807;48.384;-4.386;2022-08-04T02:00:30;18.79;74.27
73547;SHT30;61807;48.384;-4.386;2022-08-04T02:02:55;18.79;74.32
73547;SHT30;61807;48.384;-4.386;2022-08-04T02:05:24;18.81;74.27
73547;SHT30;61807;48.384;-4.386;2022-08-04T02:08:29;18.81;74.23
73547;SHT30;61807;48.384;-4.386;2022-08-04T02:16:37;18.76;74.34
73547;SHT30;61807;48.384;-4.386;2022-08-04T02:21:44;18.72;74.42
73547;SHT30;61807;48.384;-4.386;2022-08-04T02:24:14;18.73;74.36
73547;SHT30;61807;48.384;-4.386;2022-08-04T02:26:41;18.72;74.47
73547;SHT30;61807;48.384;-4.386;2022-08-04T02:29:19;18.69;74.27
73547;SHT30;61807;48.384;-4.386;2022-08-04T02:34:32;18.62;74.39
73547;SHT30;61807;48.384;-4.386;2022-08-04T02:37:03;18.62;74.45
73547;SHT30;61807;48.384;-4.386;2022-08-04T02:39:33;18.57;74.54
73547;SHT30;61807;48.384;-4.386;2022-08-04T02:42:01;18.52;74.65
73547;SHT30;61807;48.384;-4.386;2022-08-04T02:44:28;18.52;74.75
73547;SHT30;61807;48.384;-4.386;2022-08-04T02:46:54;18.51;74.74
73547;SHT30;61807;48.384;-4.386;2022-08-04T02:49:21;18.50;74.75
73547;SHT30;61807;48.384;-4.386;2022-08-04T02:51:52;18.47;74.80
73547;SHT30;61807;48.384;-4.386;2022-08-04T02:54:22;18.50;74.91
73547;SHT30;61807;48.384;-4.386;2022-08-04T02:56:50;18.51;74.95
73547;SHT30;61807;48.384;-4.386;2022-08-04T02:59:19;18.54;75.08
73547;SHT30;61807;48.384;-4.386;2022-08-04T03:01:45;18.57;75.14
73547;SHT30;61807;48.384;-4.386;2022-08-04T03:24:07;18.75;75.31
73547;SHT30;61807;48.384;-4.386;2022-08-04T03:51:33;18.95;74.90
73547;SHT30;61807;48.384;-4.386;2022-08-04T03:54:51;18.94;74.77
73547;SHT30;61807;48.384;-4.386;2022-08-04T04:00:17;18.95;74.78
73547;SHT30;61807;48.384;-4.386;2022-08-04T04:06:04;18.96;74.65
73547;SHT30;61807;48.384;-4.386;2022-08-04T04:08:50;18.98;74.57
73547;SHT30;61807;48.384;-4.386;2022-08-04T04:14:53;18.94;74.36
73547;SHT30;61807;48.384;-4.386;2022-08-04T04:17:44;18.89;74.25
73547;SHT30;61807;48.384;-4.386;2022-08-04T04:33:46;18.76;74.09
73547;SHT30;61807;48.384;-4.386;2022-08-04T04:42:04;18.71;74.14
73547;SHT30;61807;48.384;-4.386;2022-08-04T04:50:25;18.59;73.89
73547;SHT30;61807;48.384;-4.386;2022-08-04T04:52:57;18.54;73.97
73547;SHT30;61807;48.384;-4.386;2022-08-04T04:55:32;18.51;74.02
73547;SHT30;61807;48.384;-4.386;2022-08-04T04:57:59;18.47;73.98
73547;SHT30;61807;48.384;-4.386;2022-08-04T05:01:12;18.40;74.05
73547;SHT30;61807;48.384;-4.386;2022-08-04T05:09:02;18.30;74.08
73547;SHT30;61807;48.384;-4.386;2022-08-04T05:17:11;18.18;74.02
73547;SHT30;61807;48.384;-4.386;2022-08-04T05:22:11;18.14;74.09
73547;SHT30;61807;48.384;-4.386;2022-08-04T05:24:40;18.11;74.11
73547;SHT30;61807;48.384;-4.386;2022-08-04T05:27:13;18.11;74.14
73547;SHT30;61807;48.384;-4.386;2022-08-04T05:29:53;18.07;74.13
73547;SHT30;61807;48.384;-4.386;2022-08-04T05:32:23;18.09;74.10
73547;SHT30;61807;48.384;-4.386;2022-08-04T05:34:56;18.11;74.08
73547;SHT30;61807;48.384;-4.386;2022-08-04T05:37:24;18.09;74.08
73547;SHT30;61807;48.384;-4.386;2022-08-04T05:39:56;18.10;74.08
73547;SHT30;61807;48.384;-4.386;2022-08-04T05:42:22;18.10;74.06
73547;SHT30;61807;48.384;-4.386;2022-08-04T05:44:48;18.14;74.06
73547;SHT30;61807;48.384;-4.386;2022-08-04T05:47:15;18.17;73.97
73547;SHT30;61807;48.384;-4.386;2022-08-04T05:49:42;18.17;73.91
73547;SHT30;61807;48.384;-4.386;2022-08-04T05:52:09;18.18;73.90
73547;SHT30;61807;48.384;-4.386;2022-08-04T05:54:35;18.17;73.90
73547;SHT30;61807;48.384;-4.386;2022-08-04T05:57:04;18.18;73.89
73547;SHT30;61807;48.384;-4.386;2022-08-04T05:59:34;18.18;73.93
73547;SHT30;61807;48.384;-4.386;2022-08-04T06:02:01;18.20;73.86
73547;SHT30;61807;48.384;-4.386;2022-08-04T06:04:34;18.16;73.88
73547;SHT30;61807;48.384;-4.386;2022-08-04T06:07:00;18.18;73.91
73547;SHT30;61807;48.384;-4.386;2022-08-04T06:09:26;18.16;73.93
73547;SHT30;61807;48.384;-4.386;2022-08-04T06:11:52;18.17;73.95
73547;SHT30;61807;48.384;-4.386;2022-08-04T06:14:19;18.21;73.95
73547;SHT30;61807;48.384;-4.386;2022-08-04T06:16:47;18.24;73.93
73547;SHT30;61807;48.384;-4.386;2022-08-04T06:19:14;18.24;73.78
73547;SHT30;61807;48.384;-4.386;2022-08-04T06:21:44;18.27;73.84
73547;SHT30;61807;48.384;-4.386;2022-08-04T06:24:15;18.31;73.87
73547;SHT30;61807;48.384;-4.386;2022-08-04T06:26:43;18.31;73.84
73547;SHT30;61807;48.384;-4.386;2022-08-04T06:29:10;18.38;73.81
73547;SHT30;61807;48.384;-4.386;2022-08-04T06:31:46;18.37;73.64
73547;SHT30;61807;48.384;-4.386;2022-08-04T06:34:23;18.41;73.67
73547;SHT30;61807;48.384;-4.386;2022-08-04T06:36:49;18.43;73.63
73547;SHT30;61807;48.384;-4.386;2022-08-04T06:39:16;18.47;73.50
73547;SHT30;61807;48.384;-4.386;2022-08-04T06:41:42;18.47;73.30
73547;SHT30;61807;48.384;-4.386;2022-08-04T06:44:09;18.51;73.33
73547;SHT30;61807;48.384;-4.386;2022-08-04T06:46:37;18.54;73.23
73547;SHT30;61807;48.384;-4.386;2022-08-04T06:49:04;18.54;73.10
73547;SHT30;61807;48.384;-4.386;2022-08-04T06:51:32;18.58;72.95
73547;SHT30;61807;48.384;-4.386;2022-08-04T06:53:59;18.62;72.91
73547;SHT30;61807;48.384;-4.386;2022-08-04T06:56:25;18.59;72.81
73547;SHT30;61807;48.384;-4.386;2022-08-04T06:58:54;18.64;72.63
73547;SHT30;61807;48.384;-4.386;2022-08-04T07:01:20;18.64;72.76
73547;SHT30;61807;48.384;-4.386;2022-08-04T07:03:46;18.62;72.59
73547;SHT30;61807;48.384;-4.386;2022-08-04T07:06:12;18.69;72.71
73547;SHT30;61807;48.384;-4.386;2022-08-04T07:08:39;18.69;72.68
73547;SHT30;61807;48.384;-4.386;2022-08-04T07:11:05;18.72;72.36
73547;SHT30;61807;48.384;-4.386;2022-08-04T07:13:31;18.79;72.43
73547;SHT30;61807;48.384;-4.386;2022-08-04T07:15:58;18.79;72.24
73547;SHT30;61807;48.384;-4.386;2022-08-04T07:18:24;18.84;72.14
73547;SHT30;61807;48.384;-4.386;2022-08-04T07:20:50;18.91;71.99
73547;SHT30;61807;48.384;-4.386;2022-08-04T07:23:16;18.92;71.82
73547;SHT30;61807;48.384;-4.386;2022-08-04T07:25:55;18.96;71.38
73547;SHT30;61807;48.384;-4.386;2022-08-04T07:28:24;19.05;71.49
73547;SHT30;61807;48.384;-4.386;2022-08-04T07:30:51;19.13;71.59
73547;SHT30;61807;48.384;-4.386;2022-08-04T07:33:18;19.23;71.23
73547;SHT30;61807;48.384;-4.386;2022-08-04T07:35:49;19.27;71.15
73547;SHT30;61807;48.384;-4.386;2022-08-04T07:38:16;19.33;70.89
73547;SHT30;61807;48.384;-4.386;2022-08-04T07:40:41;19.40;70.86
73547;SHT30;61807;48.384;-4.386;2022-08-04T07:43:07;19.47;70.94
73547;SHT30;61807;48.384;-4.386;2022-08-04T07:45:33;19.53;70.60
73547;SHT30;61807;48.384;-4.386;2022-08-04T07:47:59;19.63;70.41
73547;SHT30;61807;48.384;-4.386;2022-08-04T07:50:25;19.71;70.48
73547;SHT30;61807;48.384;-4.386;2022-08-04T07:52:52;19.84;70.19
73547;SHT30;61807;48.384;-4.386;2022-08-04T07:55:19;19.89;69.77
73547;SHT30;61807;48.384;-4.386;2022-08-04T07:57:45;19.98;69.50
73547;SHT30;61807;48.384;-4.386;2022-08-04T08:00:11;20.09;69.63
73547;SHT30;61807;48.384;-4.386;2022-08-04T08:02:40;20.19;68.19
73547;SHT30;61807;48.384;-4.386;2022-08-04T08:05:12;20.22;68.86
73547;SHT30;61807;48.384;-4.386;2022-08-04T08:07:38;20.32;68.37
73547;SHT30;61807;48.384;-4.386;2022-08-04T08:10:03;20.39;68.15
73547;SHT30;61807;48.384;-4.386;2022-08-04T08:12:30;20.52;68.30
73547;SHT30;61807;48.384;-4.386;2022-08-04T08:14:57;20.59;67.67
73547;SHT30;61807;48.384;-4.386;2022-08-04T08:17:22;20.69;67.97
73547;SHT30;61807;48.384;-4.386;2022-08-04T08:19:48;20.79;67.59
73547;SHT30;61807;48.384;-4.386;2022-08-04T08:22:13;20.85;67.36
73547;SHT30;61807;48.384;-4.386;2022-08-04T08:24:39;20.95;67.69
73547;SHT30;61807;48.384;-4.386;2022-08-04T08:27:05;21.10;67.14
73547;SHT30;61807;48.384;-4.386;2022-08-04T08:29:34;21.21;67.32
73547;SHT30;61807;48.384;-4.386;2022-08-04T08:32:03;21.30;66.66
73547;SHT30;61807;48.384;-4.386;2022-08-04T08:34:30;21.31;66.45
73547;SHT30;61807;48.384;-4.386;2022-08-04T08:37:03;21.28;66.21
73547;SHT30;61807;48.384;-4.386;2022-08-04T08:39:45;21.27;66.54
73547;SHT30;61807;48.384;-4.386;2022-08-04T08:48:58;22.31;62.94
73547;SHT30;61807;48.384;-4.386;2022-08-04T09:10:02;22.71;60.76
73547;SHT30;61807;48.384;-4.386;2022-08-04T09:15:42;23.81;58.36
73547;SHT30;61807;48.384;-4.386;2022-08-04T09:18:19;24.40;58.18
73547;SHT30;61807;48.384;-4.386;2022-08-04T09:20:55;24.74;55.42
73547;SHT30;61807;48.384;-4.386;2022-08-04T09:26:19;25.41;53.98
73547;SHT30;61807;48.384;-4.386;2022-08-04T09:28:55;25.89;54.37
73547;SHT30;61807;48.384;-4.386;2022-08-04T09:31:45;26.37;53.30
73547;SHT30;61807;48.384;-4.386;2022-08-04T09:45:35;26.47;51.66
73547;SHT30;61807;48.384;-4.386;2022-08-04T09:48:09;26.07;50.92
73547;SHT30;61807;48.384;-4.386;2022-08-04T09:50:40;25.49;51.65
73547;SHT30;61807;48.384;-4.386;2022-08-04T10:00:55;25.15;51.15
73547;SHT30;61807;48.384;-4.386;2022-08-04T10:03:27;25.53;51.51
73547;SHT30;61807;48.384;-4.386;2022-08-04T10:09:07;25.71;51.19
73547;SHT30;61807;48.384;-4.386;2022-08-04T10:11:39;26.00;50.28
73547;SHT30;61807;48.384;-4.386;2022-08-04T10:17:30;26.52;49.51
73547;SHT30;61807;48.384;-4.386;2022-08-04T10:23:22;26.39;48.44
73547;SHT30;61807;48.384;-4.386;2022-08-04T10:28:48;26.23;48.07
73547;SHT30;61807;48.384;-4.386;2022-08-04T10:31:19;25.92;48.44
73547;SHT30;61807;48.384;-4.386;2022-08-04T10:36:50;25.39;49.44
73547;SHT30;61807;48.384;-4.386;2022-08-04T10:39:26;25.30;48.94
73547;SHT30;61807;48.384;-4.386;2022-08-04T10:42:20;25.23;49.54
73547;SHT30;61807;48.384;-4.386;2022-08-04T10:47:44;25.10;50.49
73547;SHT30;61807;48.384;-4.386;2022-08-04T10:50:14;25.08;50.52
73547;SHT30;61807;48.384;-4.386;2022-08-04T10:55:35;24.98;50.44
73547;SHT30;61807;48.384;-4.386;2022-08-04T10:58:07;24.97;49.23
73547;SHT30;61807;48.384;-4.386;2022-08-04T11:00:35;24.88;49.14
73547;SHT30;61807;48.384;-4.386;2022-08-04T11:05:48;24.86;49.44
73547;SHT30;61807;48.384;-4.386;2022-08-04T11:08:25;24.94;49.72
73547;SHT30;61807;48.384;-4.386;2022-08-04T11:10:59;24.93;48.96
73547;SHT30;61807;48.384;-4.386;2022-08-04T11:13:32;24.94;47.87
73547;SHT30;61807;48.384;-4.386;2022-08-04T11:16:02;24.97;49.54
73547;SHT30;61807;48.384;-4.386;2022-08-04T11:18:47;24.97;49.51
73547;SHT30;61807;48.384;-4.386;2022-08-04T11:21:18;24.97;49.28
73547;SHT30;61807;48.384;-4.386;2022-08-04T11:23:52;24.82;49.41
73547;SHT30;61807;48.384;-4.386;2022-08-04T11:26:44;24.69;50.08
73547;SHT30;61807;48.384;-4.386;2022-08-04T11:31:58;24.60;48.62
73547;SHT30;61807;48.384;-4.386;2022-08-04T11:34:26;24.60;49.89
73547;SHT30;61807;48.384;-4.386;2022-08-04T11:37:12;24.56;49.27
73547;SHT30;61807;48.384;-4.386;2022-08-04T11:39:47;24.62;49.91
73547;SHT30;61807;48.384;-4.386;2022-08-04T11:45:04;24.88;48.53
73547;SHT30;61807;48.384;-4.386;2022-08-04T11:52:55;24.80;48.35
73547;SHT30;61807;48.384;-4.386;2022-08-04T11:55:24;25.32;48.40
73547;SHT30;61807;48.384;-4.386;2022-08-04T11:57:51;25.79;47.85
73547;SHT30;61807;48.384;-4.386;2022-08-04T12:00:17;26.00;47.51
73547;SHT30;61807;48.384;-4.386;2022-08-04T12:02:49;26.48;46.71
73547;SHT30;61807;48.384;-4.386;2022-08-04T12:05:20;26.89;45.88
73547;SHT30;61807;48.384;-4.386;2022-08-04T12:10:41;27.08;45.28
73547;SHT30;61807;48.384;-4.386;2022-08-04T12:13:39;27.18;45.39
73547;SHT30;61807;48.384;-4.386;2022-08-04T12:16:29;27.54;44.28
73547;SHT30;61807;48.384;-4.386;2022-08-04T12:18:57;27.54;44.39
73547;SHT30;61807;48.384;-4.386;2022-08-04T12:21:41;27.33;44.14
73547;SHT30;61807;48.384;-4.386;2022-08-04T12:24:17;26.88;44.70
73547;SHT30;61807;48.384;-4.386;2022-08-04T12:26:50;26.44;45.18
73547;SHT30;61807;48.384;-4.386;2022-08-04T12:29:17;26.24;45.47
73547;SHT30;61807;48.384;-4.386;2022-08-04T12:31:54;26.62;45.66
73547;SHT30;61807;48.384;-4.386;2022-08-04T12:34:30;27.00;44.88
73547;SHT30;61807;48.384;-4.386;2022-08-04T12:37:16;27.42;44.07
73547;SHT30;61807;48.384;-4.386;2022-08-04T12:39:44;27.87;43.20
73547;SHT30;61807;48.384;-4.386;2022-08-04T12:42:18;28.01;42.95
73547;SHT30;61807;48.384;-4.386;2022-08-04T12:44:47;27.70;41.96
73547;SHT30;61807;48.384;-4.386;2022-08-04T12:47:22;27.32;43.11
73547;SHT30;61807;48.384;-4.386;2022-08-04T12:49:48;27.53;43.23
73547;SHT30;61807;48.384;-4.386;2022-08-04T12:52:16;27.95;42.39
73547;SHT30;61807;48.384;-4.386;2022-08-04T12:54:45;28.16;42.49
73547;SHT30;61807;48.384;-4.386;2022-08-04T12:57:12;27.80;42.48
73547;SHT30;61807;48.384;-4.386;2022-08-04T12:59:42;27.39;42.72
73547;SHT30;61807;48.384;-4.386;2022-08-04T13:02:29;27.37;43.33
73547;SHT30;61807;48.384;-4.386;2022-08-04T13:04:59;27.60;42.33
73547;SHT30;61807;48.384;-4.386;2022-08-04T13:07:27;27.87;42.35
73547;SHT30;61807;48.384;-4.386;2022-08-04T13:10:14;27.80;42.17
73547;SHT30;61807;48.384;-4.386;2022-08-04T13:12:43;27.95;42.73
73547;SHT30;61807;48.384;-4.386;2022-08-04T13:15:19;28.19;42.41
73547;SHT30;61807;48.384;-4.386;2022-08-04T13:17:58;27.95;41.54
73547;SHT30;61807;48.384;-4.386;2022-08-04T13:20:26;27.46;42.40
73547;SHT30;61807;48.384;-4.386;2022-08-04T13:23:18;27.15;43.58
73547;SHT30;61807;48.384;-4.386;2022-08-04T13:25:45;27.00;44.13
73547;SHT30;61807;48.384;-4.386;2022-08-04T13:28:15;27.06;43.79
73547;SHT30;61807;48.384;-4.386;2022-08-04T13:30:46;27.15;42.81
73547;SHT30;61807;48.384;-4.386;2022-08-04T13:33:14;27.22;42.37
73547;SHT30;61807;48.384;-4.386;2022-08-04T13:35:44;27.25;42.95
73547;SHT30;61807;48.384;-4.386;2022-08-04T13:38:16;27.42;43.05
73547;SHT30;61807;48.384;-4.386;2022-08-04T13:40:42;27.63;41.76
73547;SHT30;61807;48.384;-4.386;2022-08-04T13:43:21;27.64;42.29
73547;SHT30;61807;48.384;-4.386;2022-08-04T13:45:48;27.50;43.20
73547;SHT30;61807;48.384;-4.386;2022-08-04T13:48:15;27.29;43.36
73547;SHT30;61807;48.384;-4.386;2022-08-04T13:50:44;27.27;44.03
73547;SHT30;61807;48.384;-4.386;2022-08-04T13:53:11;27.20;43.58
73547;SHT30;61807;48.384;-4.386;2022-08-04T13:55:37;27.13;43.61
73547;SHT30;61807;48.384;-4.386;2022-08-04T13:58:08;27.03;43.90
73547;SHT30;61807;48.384;-4.386;2022-08-04T14:06:35;27.58;43.26
73547;SHT30;61807;48.384;-4.386;2022-08-04T14:09:19;27.51;43.00
73547;SHT30;61807;48.384;-4.386;2022-08-04T14:11:48;27.57;43.34
73547;SHT30;61807;48.384;-4.386;2022-08-04T14:17:11;27.74;42.93
73547;SHT30;61807;48.384;-4.386;2022-08-04T14:19:50;27.81;43.24
73547;SHT30;61807;48.384;-4.386;2022-08-04T14:25:09;27.58;42.64
73547;SHT30;61807;48.384;-4.386;2022-08-04T14:27:42;27.37;42.57
73547;SHT30;61807;48.384;-4.386;2022-08-04T14:30:25;27.20;43.72
73547;SHT30;61807;48.384;-4.386;2022-08-04T14:35:19;26.98;43.49
73547;SHT30;61807;48.384;-4.386;2022-08-04T14:38:02;26.91;43.28
73547;SHT30;61807;48.384;-4.386;2022-08-04T14:40:34;26.81;43.83
73547;SHT30;61807;48.384;-4.386;2022-08-04T14:43:00;26.82;44.45
73547;SHT30;61807;48.384;-4.386;2022-08-04T14:47:55;26.72;44.08
73547;SHT30;61807;48.384;-4.386;2022-08-04T14:50:36;26.62;44.39
73547;SHT30;61807;48.384;-4.386;2022-08-04T14:53:04;26.48;44.17
73547;SHT30;61807;48.384;-4.386;2022-08-04T14:55:30;26.26;44.29
73547;SHT30;61807;48.384;-4.386;2022-08-04T14:57:56;26.00;44.34
73547;SHT30;61807;48.384;-4.386;2022-08-04T15:00:30;25.83;44.94
73547;SHT30;61807;48.384;-4.386;2022-08-04T15:03:07;25.62;45.52
73547;SHT30;61807;48.384;-4.386;2022-08-04T15:05:34;25.39;45.42
73547;SHT30;61807;48.384;-4.386;2022-08-04T15:08:00;25.15;46.08
73547;SHT30;61807;48.384;-4.386;2022-08-04T15:10:26;25.03;46.82
73547;SHT30;61807;48.384;-4.386;2022-08-04T15:12:52;25.08;47.46
73547;SHT30;61807;48.384;-4.386;2022-08-04T15:15:18;25.20;48.08
73547;SHT30;61807;48.384;-4.386;2022-08-04T15:17:45;25.24;47.29
73547;SHT30;61807;48.384;-4.386;2022-08-04T15:20:11;25.13;48.07
73547;SHT30;61807;48.384;-4.386;2022-08-04T15:22:37;25.08;48.69
73547;SHT30;61807;48.384;-4.386;2022-08-04T15:25:03;25.15;48.92
73547;SHT30;61807;48.384;-4.386;2022-08-04T15:27:33;25.18;49.46
73547;SHT30;61807;48.384;-4.386;2022-08-04T15:30:02;25.20;49.39
73547;SHT30;61807;48.384;-4.386;2022-08-04T15:32:33;25.21;49.54
73547;SHT30;61807;48.384;-4.386;2022-08-04T15:35:25;25.04;49.56
73547;SHT30;61807;48.384;-4.386;2022-08-04T15:45:51;24.60;51.05
73547;SHT30;61807;48.384;-4.386;2022-08-04T15:54:19;24.16;52.11
73547;SHT30;61807;48.384;-4.386;2022-08-04T15:58:50;23.79;52.51
73547;SHT30;61807;48.384;-4.386;2022-08-04T16:01:17;23.57;53.13
73547;SHT30;61807;48.384;-4.386;2022-08-04T16:03:46;23.36;53.31
73547;SHT30;61807;48.384;-4.386;2022-08-04T16:16:45;22.98;53.86
73547;SHT30;61807;48.384;-4.386;2022-08-04T16:21:50;22.79;54.60
73547;SHT30;61807;48.384;-4.386;2022-08-04T16:24:21;22.81;55.01
73547;SHT30;61807;48.384;-4.386;2022-08-04T16:26:58;22.84;55.03
73547;SHT30;61807;48.384;-4.386;2022-08-04T16:34:32;23.50;53.83
73547;SHT30;61807;48.384;-4.386;2022-08-04T16:37:00;23.66;53.34
73547;SHT30;61807;48.384;-4.386;2022-08-04T16:39:25;23.68;53.16
73547;SHT30;61807;48.384;-4.386;2022-08-04T16:41:51;23.71;53.28
73547;SHT30;61807;48.384;-4.386;2022-08-04T16:44:36;23.81;53.01
73547;SHT30;61807;48.384;-4.386;2022-08-04T16:47:05;23.94;52.39
73547;SHT30;61807;48.384;-4.386;2022-08-04T16:49:31;23.95;52.47
73547;SHT30;61807;48.384;-4.386;2022-08-04T16:52:05;24.01;51.95
73547;SHT30;61807;48.384;-4.386;2022-08-04T16:54:32;24.06;51.37
73547;SHT30;61807;48.384;-4.386;2022-08-04T16:56:58;24.08;51.45
73547;SHT30;61807;48.384;-4.386;2022-08-04T16:59:24;24.05;50.74
73547;SHT30;61807;48.384;-4.386;2022-08-04T17:01:52;23.98;50.93
73547;SHT30;61807;48.384;-4.386;2022-08-04T17:04:27;23.91;51.23
73547;SHT30;61807;48.384;-4.386;2022-08-04T17:07:01;23.89;50.82
73547;SHT30;61807;48.384;-4.386;2022-08-04T17:09:27;23.78;50.79
73547;SHT30;61807;48.384;-4.386;2022-08-04T17:11:53;23.66;51.00
73547;SHT30;61807;48.384;-4.386;2022-08-04T17:14:24;23.54;50.89
73547;SHT30;61807;48.384;-4.386;2022-08-04T17:16:50;23.40;51.41
73547;SHT30;61807;48.384;-4.386;2022-08-04T17:19:15;23.33;51.54
73547;SHT30;61807;48.384;-4.386;2022-08-04T17:21:41;23.23;52.10
73547;SHT30;61807;48.384;-4.386;2022-08-04T17:24:07;23.16;51.81
73547;SHT30;61807;48.384;-4.386;2022-08-04T17:26:35;23.06;52.00
73547;SHT30;61807;48.384;-4.386;2022-08-04T17:29:01;22.96;52.15
73547;SHT30;61807;48.384;-4.386;2022-08-04T17:31:29;22.82;51.83
73547;SHT30;61807;48.384;-4.386;2022-08-04T17:33:57;22.65;52.14
73547;SHT30;61807;48.384;-4.386;2022-08-04T17:36:25;22.47;52.25
73547;SHT30;61807;48.384;-4.386;2022-08-04T17:38:54;22.38;52.79
73547;SHT30;61807;48.384;-4.386;2022-08-04T17:41:22;22.33;52.52
73547;SHT30;61807;48.384;-4.386;2022-08-04T17:43:49;22.16;51.49
73547;SHT30;61807;48.384;-4.386;2022-08-04T17:46:22;22.07;52.04
73547;SHT30;61807;48.384;-4.386;2022-08-04T17:54:02;21.79;52.17
73547;SHT30;61807;48.384;-4.386;2022-08-04T18:07:13;21.27;52.57
73547;SHT30;61807;48.384;-4.386;2022-08-04T18:09:41;21.24;52.68
73547;SHT30;61807;48.384;-4.386;2022-08-04T18:12:10;21.21;52.87
73547;SHT30;61807;48.384;-4.386;2022-08-04T18:14:45;21.14;53.29
73547;SHT30;61807;48.384;-4.386;2022-08-04T18:17:13;21.10;53.34
73547;SHT30;61807;48.384;-4.386;2022-08-04T18:19:51;21.04;53.46
73547;SHT30;61807;48.384;-4.386;2022-08-04T18:22:18;20.94;53.27
73547;SHT30;61807;48.384;-4.386;2022-08-04T18:24:43;20.88;53.46
73547;SHT30;61807;48.384;-4.386;2022-08-04T18:27:09;20.80;53.32
73547;SHT30;61807;48.384;-4.386;2022-08-04T18:29:34;20.72;53.60
73547;SHT30;61807;48.384;-4.386;2022-08-04T18:32:01;20.67;53.62
73547;SHT30;61807;48.384;-4.386;2022-08-04T18:34:26;20.60;53.75
73547;SHT30;61807;48.384;-4.386;2022-08-04T18:36:52;20.53;53.76
73547;SHT30;61807;48.384;-4.386;2022-08-04T18:39:17;20.45;54.03
73547;SHT30;61807;48.384;-4.386;2022-08-04T18:41:44;20.39;54.11
73547;SHT30;61807;48.384;-4.386;2022-08-04T18:44:10;20.36;54.10
73547;SHT30;61807;48.384;-4.386;2022-08-04T18:46:35;20.25;54.17
73547;SHT30;61807;48.384;-4.386;2022-08-04T18:49:01;20.21;54.23
73547;SHT30;61807;48.384;-4.386;2022-08-04T18:51:26;20.14;54.24
73547;SHT30;61807;48.384;-4.386;2022-08-04T18:53:52;20.08;54.51
73547;SHT30;61807;48.384;-4.386;2022-08-04T18:56:18;20.05;54.71
73547;SHT30;61807;48.384;-4.386;2022-08-04T18:58:43;20.02;54.91
73547;SHT30;61807;48.384;-4.386;2022-08-04T19:01:09;20.02;55.13
73547;SHT30;61807;48.384;-4.386;2022-08-04T19:03:35;19.96;55.00
73547;SHT30;61807;48.384;-4.386;2022-08-04T19:06:01;19.89;55.27
73547;SHT30;61807;48.384;-4.386;2022-08-04T19:08:28;19.85;55.25
73547;SHT30;61807;48.384;-4.386;2022-08-04T19:10:54;19.84;55.17
73547;SHT30;61807;48.384;-4.386;2022-08-04T19:13:19;19.75;55.22
73547;SHT30;61807;48.384;-4.386;2022-08-04T19:15:44;19.73;55.27
73547;SHT30;61807;48.384;-4.386;2022-08-04T19:18:10;19.68;55.30
73547;SHT30;61807;48.384;-4.386;2022-08-04T19:20:35;19.64;55.64
73547;SHT30;61807;48.384;-4.386;2022-08-04T19:23:01;19.60;55.95
73547;SHT30;61807;48.384;-4.386;2022-08-04T19:25:26;19.54;56.32
73547;SHT30;61807;48.384;-4.386;2022-08-04T19:27:52;19.51;56.21
73547;SHT30;61807;48.384;-4.386;2022-08-04T19:30:17;19.41;56.39
73547;SHT30;61807;48.384;-4.386;2022-08-04T19:32:42;19.37;56.92
73547;SHT30;61807;48.384;-4.386;2022-08-04T19:35:08;19.36;56.80
73547;SHT30;61807;48.384;-4.386;2022-08-04T19:37:33;19.29;57.33
73547;SHT30;61807;48.384;-4.386;2022-08-04T19:39:59;19.19;57.34
73547;SHT30;61807;48.384;-4.386;2022-08-04T19:42:24;19.17;57.84
73547;SHT30;61807;48.384;-4.386;2022-08-04T19:44:50;19.10;57.95
73547;SHT30;61807;48.384;-4.386;2022-08-04T19:47:15;19.06;58.23
73547;SHT30;61807;48.384;-4.386;2022-08-04T19:49:40;18.99;58.45
73547;SHT30;61807;48.384;-4.386;2022-08-04T19:52:06;18.92;58.59
73547;SHT30;61807;48.384;-4.386;2022-08-04T19:54:32;18.88;58.63
73547;SHT30;61807;48.384;-4.386;2022-08-04T19:56:57;18.82;58.78
73547;SHT30;61807;48.384;-4.386;2022-08-04T19:59:23;18.78;58.94
73547;SHT30;61807;48.384;-4.386;2022-08-04T20:01:48;18.71;59.13
73547;SHT30;61807;48.384;-4.386;2022-08-04T20:04:14;18.64;59.32
73547;SHT30;61807;48.384;-4.386;2022-08-04T20:06:39;18.58;59.58
73547;SHT30;61807;48.384;-4.386;2022-08-04T20:09:05;18.54;59.61
73547;SHT30;61807;48.384;-4.386;2022-08-04T20:11:31;18.51;59.62
73547;SHT30;61807;48.384;-4.386;2022-08-04T20:13:56;18.44;59.68
73547;SHT30;61807;48.384;-4.386;2022-08-04T20:16:22;18.41;59.87
73547;SHT30;61807;48.384;-4.386;2022-08-04T20:18:47;18.38;59.93
73547;SHT30;61807;48.384;-4.386;2022-08-04T20:21:13;18.36;60.02
73547;SHT30;61807;48.384;-4.386;2022-08-04T20:23:38;18.33;59.99
73547;SHT30;61807;48.384;-4.386;2022-08-04T20:26:04;18.30;60.24
73547;SHT30;61807;48.384;-4.386;2022-08-04T20:28:29;18.24;60.18
73547;SHT30;61807;48.384;-4.386;2022-08-04T20:30:55;18.21;60.26
73547;SHT30;61807;48.384;-4.386;2022-08-04T20:33:20;18.18;60.35